createdAt,value
2023-11-08T00:02:03.324Z,9.42
2023-11-08T00:07:06.354Z,9.42
2023-11-08T00:12:09.706Z,9.41
2023-11-08T00:17:15.238Z,9.40
2023-11-08T00:22:18.712Z,9.37
2023-11-08T00:27:21.542Z,9.33
2023-11-08T00:32:24.298Z,9.28
2023-11-08T00:37:26.998Z,9.24
2023-11-08T00:42:29.729Z,9.21
2023-11-08T00:47:33.271Z,9.18
2023-11-08T00:52:38.083Z,9.17
2023-11-08T00:57:40.984Z,9.11
2023-11-08T01:02:44.809Z,9.05
2023-11-08T01:07:48.113Z,8.98
2023-11-08T01:12:51.523Z,8.92
2023-11-08T01:17:56.935Z,8.88
2023-11-08T01:22:59.716Z,8.78
2023-11-08T01:28:02.424Z,8.69
2023-11-08T01:33:05.323Z,8.59
2023-11-08T01:38:08.158Z,8.52
2023-11-08T01:43:34.952Z,8.43
2023-11-08T01:48:40.744Z,8.38
2023-11-08T01:53:44.568Z,8.39
2023-11-08T01:58:48.741Z,8.44
2023-11-08T02:03:55.777Z,8.50
2023-11-08T02:08:58.658Z,8.53
2023-11-08T02:14:02.705Z,8.55
2023-11-08T02:19:06.664Z,8.57
2023-11-08T02:24:22.390Z,8.61
2023-11-08T02:29:25.254Z,8.64
2023-11-08T02:34:28.000Z,8.67
2023-11-08T02:39:30.710Z,8.66
2023-11-08T02:44:34.232Z,8.67
2023-11-08T02:49:37.773Z,8.69
2023-11-08T02:54:40.661Z,8.72
2023-11-08T02:59:43.542Z,8.73
2023-11-08T03:04:46.404Z,8.73
2023-11-08T03:09:49.461Z,8.70
2023-11-08T03:14:52.985Z,8.68
2023-11-08T03:19:56.368Z,8.68
2023-11-08T03:24:59.065Z,8.66
2023-11-08T03:30:02.020Z,8.64
2023-11-08T03:35:06.526Z,8.65
2023-11-08T03:40:13.489Z,8.63
2023-11-08T03:45:16.732Z,8.62
2023-11-08T03:50:19.665Z,8.63
2023-11-08T03:55:22.407Z,8.64
2023-11-08T04:00:26.937Z,8.64
2023-11-08T04:05:31.859Z,8.63
2023-11-08T04:10:35.162Z,8.59
2023-11-08T04:15:38.444Z,8.59
2023-11-08T04:20:43.972Z,8.62
2023-11-08T04:25:50.689Z,8.64
2023-11-08T04:30:53.503Z,8.67
2023-11-08T04:35:56.472Z,8.70
2023-11-08T04:40:59.127Z,8.73
2023-11-08T04:46:01.866Z,8.74
2023-11-08T04:51:05.480Z,8.75
2023-11-08T04:56:08.183Z,8.73
2023-11-08T05:01:10.966Z,8.76
2023-11-08T05:06:13.830Z,8.78
2023-11-08T05:11:16.497Z,8.78
2023-11-08T05:16:23.118Z,8.78
2023-11-08T05:21:27.843Z,8.81
2023-11-08T05:26:30.742Z,8.83
2023-11-08T05:31:35.292Z,8.84
2023-11-08T05:36:38.499Z,8.83
2023-11-08T05:41:41.356Z,8.83
2023-11-08T05:46:44.221Z,8.79
2023-11-08T05:51:47.099Z,8.75
2023-11-08T05:56:49.892Z,8.76
2023-11-08T06:01:52.764Z,8.81
2023-11-08T06:06:56.290Z,8.89
2023-11-08T06:11:59.112Z,8.89
2023-11-08T06:17:02.933Z,8.90
2023-11-08T06:22:05.660Z,8.91
2023-11-08T06:27:08.726Z,8.93
2023-11-08T06:32:11.514Z,8.93
2023-11-08T06:37:15.021Z,8.99
2023-11-08T06:42:17.817Z,9.04
2023-11-08T06:47:20.482Z,9.06
2023-11-08T06:52:23.163Z,9.11
2023-11-08T06:57:25.880Z,9.18
2023-11-08T07:02:29.781Z,9.26
2023-11-08T07:07:34.559Z,9.31
2023-11-08T07:12:37.368Z,9.33
2023-11-08T07:17:40.352Z,9.34
2023-11-08T07:22:45.985Z,9.40
2023-11-08T07:27:48.841Z,9.48
2023-11-08T07:32:53.664Z,9.51
2023-11-08T07:37:56.641Z,9.58
2023-11-08T07:42:59.784Z,9.66
2023-11-08T07:48:04.473Z,9.70
2023-11-08T07:53:07.269Z,9.75
2023-11-08T07:58:09.997Z,9.81
2023-11-08T08:03:15.722Z,9.88
2023-11-08T08:08:18.877Z,9.86
2023-11-08T08:13:30.897Z,9.88
2023-11-08T08:18:37.636Z,9.92
2023-11-08T08:23:44.540Z,9.94
2023-11-08T08:28:52.591Z,9.97
2023-11-08T08:33:58.279Z,9.98
2023-11-08T08:39:01.183Z,10.00
2023-11-08T08:44:06.648Z,10.01
2023-11-08T08:49:09.370Z,10.03
2023-11-08T08:54:12.246Z,10.07
2023-11-08T08:59:15.011Z,10.18
2023-11-08T09:04:17.937Z,10.30
2023-11-08T09:09:20.816Z,10.40
2023-11-08T09:14:23.922Z,10.46
2023-11-08T09:19:27.960Z,10.55
2023-11-08T09:24:30.778Z,10.63
2023-11-08T09:29:37.495Z,10.70
2023-11-08T09:34:40.525Z,10.72
2023-11-08T09:39:47.818Z,10.74
2023-11-08T09:44:51.032Z,10.82
2023-11-08T09:49:56.900Z,10.86
2023-11-08T09:55:00.506Z,10.86
2023-11-08T10:00:05.015Z,10.84
2023-11-08T10:05:08.668Z,10.80
2023-11-08T10:10:12.091Z,10.73
2023-11-08T10:15:23.004Z,10.70
2023-11-08T10:20:31.974Z,10.77
2023-11-08T10:25:36.350Z,10.80
2023-11-08T10:30:42.655Z,10.91
2023-11-08T10:35:46.772Z,10.91
2023-11-08T10:40:50.231Z,10.89
2023-11-08T10:45:53.005Z,10.93
2023-11-08T10:50:56.280Z,10.99
2023-11-08T10:56:03.099Z,11.08
2023-11-08T11:01:07.476Z,11.14
2023-11-08T11:06:12.631Z,11.18
2023-11-08T11:11:16.500Z,11.38
2023-11-08T11:16:34.265Z,11.52
2023-11-08T11:21:50.453Z,11.59
2023-11-08T11:26:53.186Z,11.62
2023-11-08T11:31:56.899Z,11.52
2023-11-08T11:37:03.593Z,11.36
2023-11-08T11:42:13.723Z,11.24
2023-11-08T11:47:23.275Z,11.19
2023-11-08T11:52:26.601Z,11.20
2023-11-08T11:57:31.079Z,11.19
2023-11-08T12:02:34.549Z,11.32
2023-11-08T12:07:39.475Z,11.42
2023-11-08T12:12:45.179Z,11.32
2023-11-08T12:17:51.015Z,11.26
2023-11-08T12:22:54.841Z,11.26
2023-11-08T12:27:58.384Z,11.21
2023-11-08T12:33:01.529Z,11.17
2023-11-08T12:38:04.553Z,11.12
2023-11-08T12:43:56.881Z,11.17
2023-11-08T12:48:41.330Z,11.21
2023-11-08T12:53:48.329Z,11.11
2023-11-08T12:58:51.298Z,10.98
2023-11-08T13:03:54.061Z,10.89
2023-11-08T13:08:56.995Z,10.79
2023-11-08T13:14:00.028Z,10.80
2023-11-08T13:19:04.998Z,10.79
2023-11-08T13:24:08.557Z,10.79
2023-11-08T13:29:11.764Z,10.81
2023-11-08T13:34:14.757Z,10.80
2023-11-08T13:39:17.546Z,10.74
2023-11-08T13:44:20.422Z,10.66
2023-11-08T13:49:23.813Z,10.60
2023-11-08T13:54:26.686Z,10.58
2023-11-08T13:59:29.368Z,10.52
2023-11-08T14:04:32.166Z,10.47
2023-11-08T14:09:36.685Z,10.41
2023-11-08T14:14:39.463Z,10.38
2023-11-08T14:19:42.302Z,10.37
2023-11-08T14:24:45.509Z,10.32
2023-11-08T14:29:52.582Z,10.26
2023-11-08T14:36:30.934Z,10.21
2023-11-08T14:43:23.982Z,10.13
2023-11-08T14:48:42.653Z,10.05
2023-11-08T15:01:20.575Z,9.92
2023-11-08T15:06:25.826Z,9.90
2023-11-08T15:11:28.819Z,9.88
2023-11-08T15:16:31.683Z,9.86
2023-11-08T15:21:34.447Z,9.83
2023-11-08T15:26:37.666Z,9.77
2023-11-08T15:31:40.450Z,9.73
2023-11-08T15:36:43.278Z,9.70
2023-11-08T15:41:47.521Z,9.70
2023-11-08T15:46:50.352Z,9.70
2023-11-08T15:51:53.333Z,9.68
2023-11-08T15:56:56.325Z,9.66
2023-11-08T16:02:00.309Z,9.66
2023-11-08T16:07:03.859Z,9.64
2023-11-08T16:12:06.913Z,9.61
2023-11-08T16:17:10.083Z,9.59
2023-11-08T16:22:14.768Z,9.57
2023-11-08T16:27:17.705Z,9.53
2023-11-08T16:32:35.494Z,9.50
2023-11-08T16:37:44.108Z,9.51
2023-11-08T16:42:47.051Z,9.50
2023-11-08T16:47:51.456Z,9.48
2023-11-08T16:52:54.188Z,9.45
2023-11-08T16:57:57.049Z,9.42
2023-11-08T17:02:59.866Z,9.39
2023-11-08T17:08:06.067Z,9.35
2023-11-08T17:13:10.907Z,9.34
2023-11-08T17:18:14.387Z,9.36
2023-11-08T17:23:17.312Z,9.36
2023-11-08T17:28:20.529Z,9.35
2023-11-08T17:33:23.343Z,9.33
2023-11-08T17:38:26.050Z,9.32
2023-11-08T17:43:30.005Z,9.30
2023-11-08T17:48:32.759Z,9.28
2023-11-08T17:53:35.580Z,9.25
2023-11-08T17:58:39.508Z,9.26
2023-11-08T18:03:42.529Z,9.26
2023-11-08T18:08:46.365Z,9.25
2023-11-08T18:13:50.096Z,9.25
2023-11-08T18:18:52.951Z,9.23
2023-11-08T18:23:56.249Z,9.20
2023-11-08T18:28:59.212Z,9.20
2023-11-08T18:34:02.605Z,9.16
2023-11-08T18:39:06.094Z,9.13
2023-11-08T18:44:09.185Z,9.13
2023-11-08T18:49:12.012Z,9.14
2023-11-08T18:54:15.164Z,9.14
2023-11-08T18:59:19.581Z,9.13
2023-11-08T19:04:23.412Z,9.13
2023-11-08T19:09:26.315Z,9.16
2023-11-08T19:14:29.496Z,9.15
2023-11-08T19:19:32.628Z,9.18
2023-11-08T19:24:35.601Z,9.16
2023-11-08T19:29:38.364Z,9.14
2023-11-08T19:34:41.068Z,9.13
2023-11-08T19:39:44.058Z,9.12
2023-11-08T19:44:48.867Z,9.10
2023-11-08T19:49:51.623Z,9.08
2023-11-08T19:54:54.401Z,9.07
2023-11-08T19:59:57.228Z,9.06
2023-11-08T20:05:00.316Z,9.07
2023-11-08T20:10:04.426Z,9.06
2023-11-08T20:15:08.306Z,9.06
2023-11-08T20:20:12.677Z,9.04
2023-11-08T20:25:15.663Z,9.05
2023-11-08T20:30:18.629Z,9.06
2023-11-08T20:35:21.619Z,9.08
2023-11-08T20:40:24.429Z,9.11
2023-11-08T20:45:27.229Z,9.11
2023-11-08T20:50:30.007Z,9.12
2023-11-08T20:55:34.069Z,9.14
2023-11-08T21:00:37.253Z,9.15
2023-11-08T21:05:40.831Z,9.16
2023-11-08T21:10:43.866Z,9.17
2023-11-08T21:15:49.140Z,9.17
2023-11-08T21:20:51.993Z,9.16
2023-11-08T21:25:54.867Z,9.16
2023-11-08T21:30:57.723Z,9.17
2023-11-08T21:36:04.196Z,9.17
2023-11-08T21:41:07.100Z,9.16
2023-11-08T21:46:10.236Z,9.16
2023-11-08T21:51:13.474Z,9.16
2023-11-08T21:56:18.486Z,9.17
2023-11-08T22:01:25.419Z,9.17
2023-11-08T22:06:28.282Z,9.17
2023-11-08T22:11:31.077Z,9.16
2023-11-08T22:16:33.932Z,9.14
2023-11-08T22:21:43.554Z,9.13
2023-11-08T22:26:46.470Z,9.12
2023-11-08T22:31:49.332Z,9.09
2023-11-08T22:36:52.268Z,9.05
2023-11-08T22:41:55.006Z,9.01
2023-11-08T22:46:57.688Z,8.99
2023-11-08T22:52:00.510Z,8.99
2023-11-08T22:57:03.695Z,8.99
2023-11-08T23:02:06.705Z,8.97
2023-11-08T23:07:10.200Z,8.93
2023-11-08T23:12:12.947Z,8.88
2023-11-08T23:17:16.216Z,8.89
2023-11-08T23:22:19.457Z,8.87
2023-11-08T23:27:22.396Z,8.85
2023-11-08T23:32:26.763Z,8.82
2023-11-08T23:37:29.801Z,8.80
2023-11-08T23:42:32.543Z,8.80
2023-11-08T23:47:35.560Z,8.78
2023-11-08T23:52:38.873Z,8.76
2023-11-08T23:57:41.812Z,8.74
